MST,Max TemperatureF,Mean TemperatureF,Min TemperatureF,Max Dew PointF,MeanDew PointF,Min DewpointF,Max Humidity, Mean Humidity, Min Humidity, Max Sea Level PressureIn, Mean Sea Level PressureIn, Min Sea Level PressureIn, Max VisibilityMiles, Mean VisibilityMiles, Min VisibilityMiles, Max Wind SpeedMPH, Mean Wind SpeedMPH, Max Gust SpeedMPH,PrecipitationIn, CloudCover, Events, WindDirDegrees
2012-10-1,89,83,77,77,74,72,89,74,55,29.81,29.77,29.71,10,8,1,14,6,,0.00,2,,147
2012-10-2,93,84,75,77,72,59,94,71,34,29.86,29.82,29.79,10,6,0,9,2,,0.00,0,Fog,202
2012-10-3,91,81,71,75,70,64,83,66,52,29.97,29.91,29.87,10,10,10,12,3,,0.00,0,,204
2012-10-4,91,83,75,75,72,68,89,68,49,30.00,29.94,29.88,10,9,8,17,5,,0.00,1,,271
2012-10-5,89,83,77,75,74,72,89,70,55,29.96,29.91,29.86,10,10,7,14,6,,0.00,3,,157
2012-10-6,93,86,78,75,72,70,83,65,46,29.90,29.84,29.77,10,10,10,15,6,,0.00,1,,213
2012-10-7,93,82,71,72,65,50,83,56,23,29.88,29.82,29.78,12,11,10,12,3,,0.00,0,,266
2012-10-8,93,81,69,68,59,48,83,48,21,29.92,29.88,29.83,12,10,8,13,4,,0.00,0,,217
2012-10-9,89,79,69,68,64,52,83,57,27,29.94,29.90,29.87,10,10,10,14,4,,0.00,0,,219
2012-10-10,91,81,71,68,62,55,73,53,31,29.95,29.89,29.84,10,10,10,13,4,,0.00,1,,183
2012-10-11,89,79,69,72,67,64,83,63,46,29.93,29.88,29.84,10,10,10,13,5,,0.00,1,,202
2012-10-12,91,82,73,70,65,63,78,57,40,29.98,29.92,29.88,10,10,10,17,6,,0.00,0,,336
2012-10-13,89,81,73,63,56,48,69,43,26,29.96,29.91,29.87,10,10,10,20,11,,0.00,2,,318
2012-10-14,86,78,69,63,57,46,73,49,25,29.92,29.88,29.84,10,10,8,14,4,,0.00,7,,321
2012-10-15,84,78,71,68,63,52,83,63,40,29.92,29.86,29.82,10,9,6,16,8,,0.00,8,,6
2012-10-16,77,74,71,73,70,66,89,84,74,29.81,29.75,29.69,8,4,1,32,16,39,0.00,8,Rain,91
2012-10-17,82,76,71,72,71,70,94,81,70,29.91,29.86,29.79,10,7,3,17,12,,6.00,7,Rain,124
2012-10-18,86,78,69,70,65,59,88,66,40,29.96,29.90,29.83,10,8,0,20,6,,0.00,0,Fog,322
2012-10-19,86,77,68,70,66,63,88,66,45,29.85,29.81,29.76,10,10,8,18,7,,0.00,0,,317
2012-10-20,89,78,68,72,69,64,94,71,43,29.87,29.81,29.77,10,8,0,17,3,,0.00,0,Fog,328
2012-10-21,91,80,68,70,65,55,88,64,29,29.89,29.83,29.78,10,8,1,16,3,,0.00,0,Fog,303
2012-10-22,91,81,71,66,60,50,83,53,24,29.88,29.83,29.80,10,10,8,16,8,,0.00,0,,319
2012-10-23,93,80,66,66,62,54,88,58,30,29.85,29.80,29.74,15,11,10,16,5,,0.00,0,,323
2012-10-24,89,78,66,66,62,54,88,61,29,29.87,29.82,29.77,15,10,3,16,5,,0.00,0,,313
2012-10-25,87,78,68,68,63,55,88,63,35,29.85,29.80,29.75,10,10,8,18,5,,0.00,0,,328
2012-10-26,87,76,66,66,60,52,88,58,29,29.85,29.79,29.74,10,9,7,15,3,,0.00,0,,309
2012-10-27,87,76,66,66,63,57,83,61,35,29.85,29.81,29.76,10,10,8,14,4,,0.00,1,,288
2012-10-28,86,77,68,66,62,55,78,59,35,29.95,29.91,29.88,10,10,8,12,5,,0.00,3,,323
2012-10-29,89,78,68,68,61,54,88,58,29,30.01,29.94,29.88,10,10,8,17,5,,0.00,0,,316
2012-10-30,89,76,64,66,62,55,88,61,31,30.00,29.93,29.87,10,10,7,17,5,,0.00,0,,291
2012-10-31,86,76,66,68,64,61,83,64,43,29.96,29.92,29.88,10,10,8,12,3,,0.00,1,,237